createdAt,value
2018-12-26T00:03:35.657Z,15.97
2018-12-26T00:08:40.689Z,13.93
2018-12-26T00:13:47.424Z,15.03
2018-12-26T00:18:56.000Z,14.87
2018-12-26T00:24:04.936Z,15.10
2018-12-26T00:29:11.023Z,15.83
2018-12-26T00:34:16.000Z,13.05
2018-12-26T00:39:21.746Z,14.73
2018-12-26T00:44:28.945Z,14.73
2018-12-26T00:49:36.045Z,13.40
2018-12-26T00:54:41.050Z,14.78
2018-12-26T00:59:45.503Z,15.57
2018-12-26T01:04:50.801Z,14.73
2018-12-26T01:09:55.606Z,14.67
2018-12-26T01:14:59.921Z,14.60
2018-12-26T01:20:05.365Z,14.20
2018-12-26T01:25:09.895Z,14.07
2018-12-26T01:30:14.650Z,14.65
2018-12-26T01:35:21.078Z,15.50
2018-12-26T01:40:25.484Z,15.20
2018-12-26T01:45:30.133Z,15.67
2018-12-26T01:50:37.422Z,15.13
2018-12-26T01:55:42.195Z,15.73
2018-12-26T02:00:47.449Z,15.70
2018-12-26T02:05:56.160Z,15.63
2018-12-26T02:11:04.618Z,16.03
2018-12-26T02:16:10.555Z,14.33
2018-12-26T02:21:16.665Z,17.12
2018-12-26T02:26:22.190Z,15.83
2018-12-26T02:31:26.430Z,16.63
2018-12-26T02:36:31.525Z,15.57
2018-12-26T02:41:38.988Z,14.93
2018-12-26T02:46:44.952Z,13.58
2018-12-26T02:51:49.778Z,14.23
2018-12-26T02:56:54.879Z,13.90
2018-12-26T03:01:59.562Z,13.53
2018-12-26T03:07:05.242Z,14.57
2018-12-26T03:12:10.459Z,12.73
2018-12-26T03:17:16.359Z,14.53
2018-12-26T03:22:21.734Z,14.77
2018-12-26T03:27:26.607Z,13.67
2018-12-26T03:32:32.411Z,13.77
2018-12-26T03:37:41.715Z,14.43
2018-12-26T03:42:46.305Z,13.27
2018-12-26T03:47:52.713Z,13.77
2018-12-26T03:52:57.730Z,14.80
2018-12-26T03:58:02.398Z,14.87
2018-12-26T04:03:07.200Z,14.27
2018-12-26T04:08:12.653Z,14.27
2018-12-26T04:13:17.365Z,14.20
2018-12-26T04:18:23.421Z,14.07
2018-12-26T04:23:30.388Z,14.07
2018-12-26T04:28:38.256Z,14.40
2018-12-26T04:33:43.743Z,14.10
2018-12-26T04:38:50.514Z,13.83
2018-12-26T04:43:55.104Z,13.90
2018-12-26T04:49:02.538Z,13.93
2018-12-26T04:54:07.444Z,14.67
2018-12-26T04:59:14.717Z,13.77
2018-12-26T05:04:19.930Z,13.47
2018-12-26T05:09:25.488Z,14.77
2018-12-26T05:14:32.426Z,13.90
2018-12-26T05:19:37.356Z,13.70
2018-12-26T05:24:42.708Z,14.80
2018-12-26T05:29:47.355Z,13.23
2018-12-26T05:34:54.404Z,14.57
2018-12-26T05:39:59.701Z,13.70
2018-12-26T05:45:05.679Z,13.37
2018-12-26T05:50:10.706Z,14.27
2018-12-26T05:55:15.324Z,12.43
2018-12-26T06:00:20.375Z,14.13
2018-12-26T06:05:26.886Z,13.50
2018-12-26T06:10:32.068Z,12.77
2018-12-26T06:15:38.173Z,13.73
2018-12-26T06:20:43.319Z,13.37
2018-12-26T06:25:47.537Z,13.67
2018-12-26T06:30:52.814Z,13.80
2018-12-26T06:36:03.328Z,14.23
2018-12-26T06:41:09.101Z,11.67
2018-12-26T06:46:14.421Z,11.25
2018-12-26T06:51:18.798Z,12.37
2018-12-26T06:56:23.104Z,11.53
2018-12-26T07:01:29.009Z,12.55
2018-12-26T07:06:33.814Z,12.37
2018-12-26T07:11:39.042Z,13.67
2018-12-26T07:16:44.094Z,12.83
2018-12-26T07:21:52.866Z,13.75
2018-12-26T07:26:58.379Z,14.17
2018-12-26T07:32:03.762Z,12.87
2018-12-26T07:37:11.686Z,14.27
2018-12-26T07:42:16.408Z,12.30
2018-12-26T07:47:21.217Z,13.90
2018-12-26T07:52:26.843Z,13.37
2018-12-26T07:57:32.654Z,17.50
2018-12-26T08:02:42.717Z,15.00
2018-12-26T08:07:47.235Z,12.27
2018-12-26T08:12:52.569Z,10.73
2018-12-26T08:17:59.975Z,12.03
2018-12-26T08:23:05.019Z,11.23
2018-12-26T08:28:10.589Z,12.47
2018-12-26T08:33:56.311Z,13.30
2018-12-26T08:39:24.897Z,12.63
2018-12-26T08:44:37.162Z,12.47
2018-12-26T08:49:45.519Z,12.57
2018-12-26T08:54:55.644Z,11.60
2018-12-26T09:00:10.079Z,10.83
2018-12-26T09:05:18.099Z,10.33
2018-12-26T09:10:28.059Z,11.27
2018-12-26T09:15:35.748Z,11.00
2018-12-26T09:20:40.937Z,11.43
2018-12-26T09:26:06.030Z,10.23
2018-12-26T09:31:27.059Z,10.77
2018-12-26T09:36:32.812Z,10.13
2018-12-26T09:41:38.116Z,10.00
2018-12-26T09:46:42.372Z,9.87
2018-12-26T09:51:47.313Z,10.13
2018-12-26T09:56:54.600Z,9.23
2018-12-26T10:02:00.126Z,10.20
2018-12-26T10:07:07.477Z,10.47
2018-12-26T10:12:12.879Z,14.90
2018-12-26T10:17:18.499Z,10.63
2018-12-26T10:22:23.490Z,9.47
2018-12-26T10:27:28.286Z,10.13
2018-12-26T10:32:35.723Z,9.70
2018-12-26T10:37:41.132Z,8.77
2018-12-26T10:42:46.642Z,9.47
2018-12-26T10:47:51.384Z,10.23
2018-12-26T10:52:57.016Z,8.75
2018-12-26T10:58:02.163Z,8.67
2018-12-26T11:03:09.173Z,10.03
2018-12-26T11:08:14.761Z,10.13
2018-12-26T11:13:19.197Z,11.65
2018-12-26T11:18:26.260Z,12.47
2018-12-26T11:23:31.492Z,9.80
2018-12-26T11:28:36.869Z,17.00
2018-12-26T11:33:42.604Z,10.73
2018-12-26T11:38:47.052Z,10.13
2018-12-26T11:43:54.025Z,10.03
2018-12-26T11:49:01.269Z,9.77
2018-12-26T11:54:06.977Z,10.33
2018-12-26T11:59:14.945Z,10.03
2018-12-26T12:04:20.002Z,10.33
2018-12-26T12:09:25.339Z,11.27
2018-12-26T12:14:32.849Z,11.53
2018-12-26T12:19:38.027Z,9.80
2018-12-26T12:24:44.108Z,10.13
2018-12-26T12:29:49.671Z,11.80
2018-12-26T12:34:54.052Z,11.97
2018-12-26T12:39:59.037Z,10.43
2018-12-26T12:45:05.014Z,10.77
2018-12-26T12:50:16.544Z,10.13
2018-12-26T12:55:22.823Z,9.70
2018-12-26T13:00:27.917Z,9.43
2018-12-26T13:05:35.301Z,9.85
2018-12-26T13:10:46.098Z,9.80
2018-12-26T13:15:53.420Z,9.20
2018-12-26T13:20:57.970Z,9.17
2018-12-26T13:26:04.811Z,9.67
2018-12-26T13:31:10.214Z,9.50
2018-12-26T13:36:15.193Z,9.33
2018-12-26T13:41:23.111Z,8.38
2018-12-26T13:46:33.669Z,9.53
2018-12-26T13:51:34.108Z,9.70
2018-12-26T13:56:38.655Z,8.30
2018-12-26T14:01:44.628Z,8.93
2018-12-26T14:06:50.655Z,8.80
2018-12-26T14:11:58.375Z,11.00
2018-12-26T14:17:03.397Z,9.77
2018-12-26T14:22:09.968Z,10.07
2018-12-26T14:27:15.904Z,9.30
2018-12-26T14:32:21.496Z,8.83
2018-12-26T14:37:29.680Z,8.80
2018-12-26T14:42:36.287Z,9.33
2018-12-26T14:47:44.576Z,10.40
2018-12-26T14:52:49.225Z,10.00
2018-12-26T14:57:53.532Z,9.77
2018-12-26T15:03:00.002Z,9.93
2018-12-26T15:08:06.331Z,9.10
2018-12-26T15:13:12.137Z,9.53
2018-12-26T15:18:18.188Z,10.63
2018-12-26T15:23:22.526Z,10.27
2018-12-26T15:28:29.172Z,10.85
2018-12-26T15:33:33.669Z,10.43
2018-12-26T15:38:38.583Z,9.47
2018-12-26T15:43:44.625Z,9.60
2018-12-26T15:48:50.312Z,10.07
2018-12-26T15:53:55.900Z,11.37
2018-12-26T15:59:00.587Z,9.90
2018-12-26T16:04:09.492Z,9.53
2018-12-26T16:09:14.952Z,11.40
2018-12-26T16:14:20.964Z,13.37
2018-12-26T16:19:27.806Z,12.63
2018-12-26T16:24:32.458Z,11.67
2018-12-26T16:29:39.099Z,10.50
2018-12-26T16:34:44.553Z,10.57
2018-12-26T16:39:52.494Z,10.53
2018-12-26T16:44:57.037Z,10.20
2018-12-26T16:50:03.056Z,10.63
2018-12-26T16:55:13.383Z,11.05
2018-12-26T17:00:21.585Z,9.47
2018-12-26T17:05:30.045Z,10.40
2018-12-26T17:10:35.947Z,10.65
2018-12-26T17:15:44.906Z,10.20
2018-12-26T17:20:53.764Z,11.40
2018-12-26T17:26:02.855Z,10.78
2018-12-26T17:31:12.884Z,11.33
2018-12-26T17:36:21.070Z,10.37
2018-12-26T17:41:27.321Z,10.23
2018-12-26T17:46:33.719Z,9.77
2018-12-26T17:51:41.391Z,11.97
2018-12-26T17:57:17.495Z,11.53
2018-12-26T18:02:37.536Z,12.83
2018-12-26T18:07:44.046Z,10.73
2018-12-26T18:12:50.116Z,11.70
2018-12-26T18:17:55.274Z,10.30
2018-12-26T18:22:59.836Z,9.77
2018-12-26T18:28:06.655Z,11.28
2018-12-26T18:33:11.093Z,11.13
2018-12-26T18:38:18.273Z,12.77
2018-12-26T18:43:23.144Z,13.77
2018-12-26T18:48:27.574Z,12.87
2018-12-26T18:53:32.714Z,14.80
2018-12-26T18:58:40.984Z,15.13
2018-12-26T19:03:45.541Z,15.50
2018-12-26T19:08:51.174Z,14.30
2018-12-26T19:14:02.217Z,13.50
2018-12-26T19:19:07.677Z,12.93
2018-12-26T19:24:12.731Z,14.53
2018-12-26T19:29:17.578Z,14.90
2018-12-26T19:34:22.362Z,15.10
2018-12-26T19:39:27.275Z,15.03
2018-12-26T19:44:31.747Z,14.17
2018-12-26T19:49:37.727Z,13.50
2018-12-26T19:54:42.020Z,12.60
2018-12-26T19:59:47.989Z,11.87
2018-12-26T20:04:53.371Z,11.97
2018-12-26T20:09:59.402Z,11.50
2018-12-26T20:15:04.425Z,10.73
2018-12-26T20:20:13.614Z,12.77
2018-12-26T20:25:20.164Z,13.43
2018-12-26T20:30:25.205Z,11.83
2018-12-26T20:35:30.076Z,12.73
2018-12-26T20:40:36.271Z,11.73
2018-12-26T20:45:41.852Z,11.68
2018-12-26T20:50:47.756Z,11.77
2018-12-26T20:55:56.978Z,11.93
2018-12-26T21:01:02.795Z,12.27
2018-12-26T21:06:10.820Z,11.47
2018-12-26T21:11:16.285Z,11.63
2018-12-26T21:16:21.277Z,11.30
2018-12-26T21:21:26.227Z,10.77
2018-12-26T21:26:36.476Z,10.87
2018-12-26T21:31:45.761Z,12.07
2018-12-26T21:36:53.653Z,11.70
2018-12-26T21:42:01.531Z,11.00
2018-12-26T21:47:08.535Z,10.58
2018-12-26T21:52:13.345Z,11.23
2018-12-26T21:57:18.704Z,11.57
2018-12-26T22:02:23.990Z,11.77
2018-12-26T22:07:30.131Z,10.93
2018-12-26T22:12:35.413Z,11.53
2018-12-26T22:17:45.421Z,12.37
2018-12-26T22:22:51.906Z,12.23
2018-12-26T22:27:57.085Z,11.27
2018-12-26T22:33:03.058Z,11.70
2018-12-26T22:38:07.881Z,11.43
2018-12-26T22:43:14.591Z,12.87
2018-12-26T22:48:24.458Z,12.33
2018-12-26T22:53:29.414Z,12.50
2018-12-26T22:58:33.885Z,12.70
2018-12-26T23:03:39.008Z,12.33
2018-12-26T23:08:50.610Z,12.40
2018-12-26T23:13:55.106Z,11.13
2018-12-26T23:19:02.312Z,12.03
2018-12-26T23:24:07.110Z,12.00
2018-12-26T23:29:12.720Z,11.90
2018-12-26T23:34:23.278Z,11.17
2018-12-26T23:39:29.879Z,12.37
2018-12-26T23:44:34.832Z,11.50
2018-12-26T23:49:42.488Z,12.17
2018-12-26T23:54:52.969Z,11.17
2018-12-26T23:59:58.925Z,11.17
